Terminal Aerodrome Forecast
Issued by NWS Cleveland, OH

Home | Current Version | Previous Version | Graphics & Text | Print | Product List | Glossary On
Versions: 1 2 3 4 5 6 7 8 9 10 11 12 13 14 15 16
633
FTUS41 KCLE 280532
TAFMFD
TAF
KMFD 280532Z 2806/2906 20006KT P6SM SCT250
     FM281700 22010KT P6SM SCT050 BKN250
     FM290000 20006KT P6SM SCT100=

USA.gov is the U.S. government's official web portal to all federal, state and local government web resources and services.